Time;durP1;ratioP1;P1;durP2;ratioP2;P2;SDS_P1;SDS_P2;PMS_P1;PMS_P2;Temp;Humidity;BMP_temperature;BMP_pressure;BME280_temperature;BME280_humidity;BME280_pressure;Samples;Min_cycle;Max_cycle;Signal;HPM_P1;HPM_P2
2022/06/27 00:00:30;;;;;;;2.25;1.73;;;23.30;99.90;;;;;;5029248;28;20762;-67
2022/06/27 00:02:55;;;;;;;3.30;2.00;;;23.40;99.90;;;;;;5045513;28;20556;-67
2022/06/27 00:05:21;;;;;;;2.38;1.65;;;23.40;99.90;;;;;;5011275;28;20409;-67
2022/06/27 00:07:46;;;;;;;2.30;1.60;;;23.40;99.90;;;;;;5013075;28;20383;-67
2022/06/27 00:10:12;;;;;;;2.45;1.88;;;23.30;99.90;;;;;;5011821;28;20474;-66
2022/06/27 00:12:39;;;;;;;2.23;1.80;;;23.30;99.90;;;;;;5013532;28;20417;-66
2022/06/27 00:15:07;;;;;;;2.00;1.80;;;23.30;99.90;;;;;;5031358;28;20391;-67
2022/06/27 00:17:33;;;;;;;2.28;1.70;;;23.30;99.90;;;;;;5014927;28;20497;-65
2022/06/27 00:19:59;;;;;;;2.47;1.73;;;23.40;99.90;;;;;;5017018;28;20573;-65
2022/06/27 00:22:26;;;;;;;1.88;1.77;;;23.30;99.90;;;;;;5032098;28;20773;-66
2022/06/27 00:24:51;;;;;;;3.55;2.00;;;23.20;99.90;;;;;;5047639;28;20383;-66
2022/06/27 00:27:17;;;;;;;1.97;1.77;;;23.10;99.90;;;;;;5031078;28;20383;-66
2022/06/27 00:29:43;;;;;;;2.20;1.80;;;23.00;99.90;;;;;;5016224;28;20430;-66
2022/06/27 00:32:09;;;;;;;3.85;1.90;;;23.00;99.90;;;;;;5046519;28;20569;-66
2022/06/27 00:34:34;;;;;;;2.50;2.03;;;23.00;99.90;;;;;;5013894;28;20706;-66
2022/06/27 00:37:00;;;;;;;1.90;1.80;;;22.90;99.90;;;;;;5015583;28;20594;-66
2022/06/27 00:39:26;;;;;;;2.75;1.80;;;22.90;99.90;;;;;;5015470;28;20417;-65
2022/06/27 00:41:52;;;;;;;2.47;1.92;;;22.90;99.90;;;;;;5033552;28;20730;-66
2022/06/27 00:44:34;;;;;;;3.40;1.70;;;22.90;99.90;;;;;;5014856;28;20390;-66
2022/06/27 00:47:00;;;;;;;3.10;2.07;;;22.80;99.90;;;;;;5047364;28;20805;-66
2022/06/27 00:49:26;;;;;;;2.50;2.00;;;22.80;99.90;;;;;;5030568;28;20395;-66
2022/06/27 00:51:52;;;;;;;2.80;1.90;;;22.70;99.90;;;;;;5014902;28;20379;-66
2022/06/27 00:54:18;;;;;;;2.60;2.10;;;22.70;99.90;;;;;;5014026;28;20414;-66
2022/06/27 00:56:44;;;;;;;3.47;2.00;;;22.70;99.90;;;;;;5030668;28;20739;-65
2022/06/27 00:59:09;;;;;;;2.17;1.90;;;22.60;99.90;;;;;;5028881;28;20786;-65
2022/06/27 01:01:35;;;;;;;2.22;1.80;;;22.70;99.90;;;;;;5028547;28;20383;-65
2022/06/27 01:04:01;;;;;;;2.57;2.00;;;22.60;99.90;;;;;;5042343;28;20624;-66
2022/06/27 01:06:29;;;;;;;2.30;1.90;;;22.60;99.90;;;;;;5028033;28;20386;-66
2022/06/27 01:08:56;;;;;;;1.93;1.70;;;22.70;99.90;;;;;;5009976;28;20401;-66
2022/06/27 01:11:22;;;;;;;3.28;1.73;;;22.70;99.90;;;;;;5009182;28;20478;-66
2022/06/27 01:13:48;;;;;;;2.50;1.98;;;22.70;99.90;;;;;;5026870;28;20490;-65
2022/06/27 01:16:15;;;;;;;2.13;1.77;;;22.70;99.90;;;;;;5025260;28;20941;-65
2022/06/27 01:18:41;;;;;;;2.20;2.00;;;22.60;99.90;;;;;;5026138;28;20486;-65
2022/06/27 01:21:08;;;;;;;2.70;1.88;;;22.60;99.90;;;;;;5009069;28;20457;-66
2022/06/27 01:23:35;;;;;;;2.53;2.00;;;22.60;99.90;;;;;;5008946;28;20747;-66
2022/06/27 01:26:00;;;;;;;2.30;1.70;;;22.50;99.90;;;;;;5010896;28;20745;-65
2022/06/27 01:28:26;;;;;;;1.95;1.55;;;22.50;99.90;;;;;;5044237;28;20875;-66
2022/06/27 01:30:52;;;;;;;2.22;1.80;;;22.50;99.90;;;;;;5011614;28;20395;-65
2022/06/27 01:33:17;;;;;;;2.87;1.97;;;22.60;99.90;;;;;;5029010;28;20477;-65
2022/06/27 01:35:43;;;;;;;1.92;1.70;;;22.60;99.90;;;;;;5008918;28;20440;-65
2022/06/27 01:38:09;;;;;;;2.60;1.90;;;22.60;99.90;;;;;;5041941;28;20500;-66
2022/06/27 01:40:34;;;;;;;2.20;1.95;;;22.40;99.90;;;;;;5012801;28;20404;-66
2022/06/27 01:43:00;;;;;;;2.60;1.90;;;22.10;99.90;;;;;;5012052;28;20409;-66
2022/06/27 01:45:29;;;;;;;3.10;1.90;;;22.00;99.90;;;;;;5043470;28;20385;-66
2022/06/27 01:47:55;;;;;;;3.05;1.90;;;21.90;99.90;;;;;;5042442;28;20399;-65
2022/06/27 01:50:24;;;;;;;2.25;1.85;;;21.80;99.90;;;;;;5042542;28;20671;-66
2022/06/27 01:52:50;;;;;;;2.17;1.98;;;21.90;99.90;;;;;;5041579;28;20388;-66
2022/06/27 01:55:17;;;;;;;2.37;2.13;;;21.90;99.90;;;;;;5042761;28;20384;-66
2022/06/27 01:57:45;;;;;;;2.83;1.90;;;21.80;99.90;;;;;;5010375;28;20408;-66
2022/06/27 02:00:14;;;;;;;3.75;2.13;;;21.70;99.90;;;;;;5009514;28;20413;-66
2022/06/27 02:02:43;;;;;;;5.15;2.45;;;21.60;99.90;;;;;;5006411;28;20401;-66
2022/06/27 02:05:09;;;;;;;3.22;2.47;;;21.50;99.90;;;;;;5041510;28;20498;-67
2022/06/27 02:07:39;;;;;;;4.97;2.90;;;21.50;99.90;;;;;;5009514;28;20439;-66
2022/06/27 02:10:06;;;;;;;4.97;2.78;;;21.60;99.90;;;;;;5012979;28;20454;-66
2022/06/27 02:12:31;;;;;;;3.00;2.63;;;21.60;99.90;;;;;;5046653;28;20399;-66
2022/06/27 02:14:57;;;;;;;3.73;2.43;;;21.50;99.90;;;;;;5045910;28;20396;-66
2022/06/27 02:17:23;;;;;;;5.15;2.83;;;21.60;99.90;;;;;;5013752;28;20700;-66
2022/06/27 02:19:49;;;;;;;2.30;2.07;;;21.60;99.90;;;;;;5014417;28;20826;-66
2022/06/27 02:22:15;;;;;;;4.03;2.13;;;21.70;99.90;;;;;;5047574;28;20404;-66
2022/06/27 02:24:42;;;;;;;3.73;2.30;;;21.60;99.90;;;;;;5015555;28;20447;-66
2022/06/27 02:27:09;;;;;;;5.00;2.00;;;21.50;99.90;;;;;;5048324;28;20380;-66
2022/06/27 02:29:35;;;;;;;4.30;1.85;;;21.50;99.90;;;;;;5016115;28;20377;-66
2022/06/27 02:32:02;;;;;;;2.92;2.05;;;21.40;99.90;;;;;;5014474;28;20396;-66
2022/06/27 02:34:33;;;;;;;3.13;2.13;;;21.50;99.90;;;;;;5045369;28;20850;-66
2022/06/27 02:36:59;;;;;;;3.50;1.88;;;21.50;99.90;;;;;;5045810;28;20443;-66
2022/06/27 02:39:28;;;;;;;2.30;1.50;;;21.40;99.90;;;;;;5013543;28;20388;-66
2022/06/27 02:41:56;;;;;;;3.42;1.90;;;21.50;99.90;;;;;;5013632;28;20392;-66
2022/06/27 02:44:22;;;;;;;3.60;2.10;;;21.40;99.90;;;;;;5012489;28;20385;-66
2022/06/27 02:46:50;;;;;;;3.83;2.20;;;21.40;99.90;;;;;;5043831;28;20398;-67
2022/06/27 02:49:17;;;;;;;3.47;1.80;;;21.30;99.90;;;;;;5012674;28;20503;-66
2022/06/27 02:51:56;;;;;;;3.92;1.95;;;21.20;99.90;;;;;;5013352;28;20479;-66
2022/06/27 02:54:38;;;;;;;2.78;1.80;;;21.20;99.90;;;;;;5045235;28;20392;-66
2022/06/27 02:57:15;;;;;;;4.67;2.00;;;21.20;99.90;;;;;;5012611;28;20404;-66
2022/06/27 02:59:43;;;;;;;2.95;2.10;;;21.20;99.90;;;;;;5046588;28;20479;-66
2022/06/27 03:02:10;;;;;;;3.17;1.52;;;21.30;99.90;;;;;;5045100;28;20397;-68
2022/06/27 03:04:37;;;;;;;3.58;1.70;;;21.30;99.90;;;;;;5044066;28;20499;-66
2022/06/27 03:07:03;;;;;;;2.58;1.90;;;21.30;99.90;;;;;;5048866;28;20381;-66
2022/06/27 03:09:28;;;;;;;3.40;1.70;;;21.30;99.90;;;;;;5011120;28;20839;-67
2022/06/27 03:11:54;;;;;;;3.23;1.50;;;21.20;99.90;;;;;;5044090;28;20691;-66
2022/06/27 03:14:19;;;;;;;1.80;1.65;;;21.20;99.90;;;;;;5043116;28;20385;-66
2022/06/27 03:16:45;;;;;;;4.20;1.60;;;21.10;99.90;;;;;;5043762;28;20389;-66
2022/06/27 03:19:12;;;;;;;3.95;2.00;;;21.10;99.90;;;;;;5045282;28;20860;-67
2022/06/27 03:21:37;;;;;;;4.22;1.98;;;21.00;99.90;;;;;;5046041;28;20404;-66
2022/06/27 03:24:03;;;;;;;2.10;1.52;;;20.80;99.90;;;;;;5014952;28;20408;-67
2022/06/27 03:26:29;;;;;;;3.13;1.70;;;20.70;99.90;;;;;;5047450;28;20385;-66
2022/06/27 03:28:55;;;;;;;3.05;1.60;;;20.50;99.90;;;;;;5045586;28;20388;-66
2022/06/27 03:31:20;;;;;;;3.53;1.80;;;20.40;99.90;;;;;;5046706;28;20416;-66
2022/06/27 03:34:24;;;;;;;2.45;1.40;;;20.50;99.90;;;;;;5045907;28;20404;-66
2022/06/27 03:37:02;;;;;;;4.68;1.80;;;20.60;99.90;;;;;;5025608;28;20658;-66
2022/06/27 03:39:28;;;;;;;3.65;1.75;;;20.30;99.90;;;;;;4993812;28;20395;-66
2022/06/27 03:41:53;;;;;;;4.45;1.90;;;20.30;99.90;;;;;;4993105;28;20395;-66
2022/06/27 03:44:19;;;;;;;3.20;1.90;;;20.00;99.90;;;;;;4993622;28;20391;-67
2022/06/27 03:46:44;;;;;;;3.87;1.77;;;20.00;99.90;;;;;;4994409;28;20390;-67
2022/06/27 03:51:55;;;;;;;2.90;1.90;;;19.80;99.90;;;;;;4994866;28;20762;-67
2022/06/27 03:54:20;;;;;;;3.75;1.83;;;19.90;99.90;;;;;;4994303;28;20490;-67
2022/06/27 03:56:46;;;;;;;2.97;1.77;;;20.00;99.90;;;;;;4991920;28;20398;-67
2022/06/27 03:59:12;;;;;;;3.67;1.80;;;20.00;99.90;;;;;;4990335;28;20426;-67
2022/06/27 04:01:38;;;;;;;3.77;2.00;;;20.00;99.90;;;;;;4989776;28;20776;-67
2022/06/27 04:04:04;;;;;;;3.60;1.73;;;20.00;99.90;;;;;;4989422;28;20390;-67
2022/06/27 04:06:29;;;;;;;3.20;2.00;;;20.00;99.90;;;;;;4992011;28;20394;-67
2022/06/27 04:08:55;;;;;;;3.85;1.98;;;20.00;99.90;;;;;;4990970;28;20445;-67
2022/06/27 04:11:20;;;;;;;5.53;1.80;;;20.10;99.90;;;;;;4991023;28;20402;-67
2022/06/27 04:13:46;;;;;;;2.20;1.75;;;20.00;99.90;;;;;;4992394;28;20422;-67
2022/06/27 04:16:12;;;;;;;5.93;2.10;;;20.10;99.90;;;;;;4987322;28;20387;-67
2022/06/27 04:18:38;;;;;;;3.37;2.20;;;20.10;99.90;;;;;;4987163;28;20862;-67
2022/06/27 04:21:09;;;;;;;5.43;2.28;;;20.10;99.90;;;;;;4988007;28;20714;-67
2022/06/27 04:23:40;;;;;;;5.70;2.50;;;20.10;99.90;;;;;;4988292;28;20394;-67
2022/06/27 04:26:21;;;;;;;4.95;2.50;;;20.10;99.90;;;;;;4988144;28;20403;-66
2022/06/27 04:28:47;;;;;;;5.40;2.40;;;20.20;99.90;;;;;;4988893;28;20402;-66
2022/06/27 04:31:13;;;;;;;4.65;2.58;;;20.20;99.90;;;;;;4986375;28;20707;-67
2022/06/27 04:33:38;;;;;;;6.68;3.25;;;20.10;99.90;;;;;;4988894;28;20822;-67
2022/06/27 04:36:05;;;;;;;5.15;2.60;;;20.00;99.90;;;;;;5017991;28;20510;-67
2022/06/27 04:38:31;;;;;;;4.80;2.67;;;19.90;99.90;;;;;;5012087;28;20398;-67
2022/06/27 04:40:58;;;;;;;7.03;2.50;;;19.90;99.90;;;;;;5028190;28;20785;-67
2022/06/27 04:43:26;;;;;;;6.45;2.75;;;20.00;99.90;;;;;;5010395;28;20778;-67
2022/06/27 04:45:52;;;;;;;6.55;2.50;;;20.00;99.90;;;;;;5042689;28;20394;-66
2022/06/27 04:48:18;;;;;;;5.47;2.80;;;20.00;99.90;;;;;;5007944;28;20395;-66
2022/06/27 04:50:44;;;;;;;4.87;2.40;;;20.00;99.90;;;;;;5024192;28;20721;-68
2022/06/27 04:53:09;;;;;;;4.75;2.70;;;20.00;99.90;;;;;;5022515;28;20805;-67
2022/06/27 04:55:35;;;;;;;7.07;3.00;;;20.00;99.90;;;;;;5037820;28;20820;-67
2022/06/27 04:58:00;;;;;;;4.60;2.60;;;20.00;99.90;;;;;;5006857;28;20375;-67
2022/06/27 05:00:26;;;;;;;2.97;2.30;;;20.00;99.90;;;;;;5039632;28;20478;-67
2022/06/27 05:02:52;;;;;;;5.40;3.00;;;20.00;99.90;;;;;;5009022;28;20395;-67
2022/06/27 05:05:18;;;;;;;5.10;2.83;;;20.00;99.90;;;;;;5010505;28;20474;-67
2022/06/27 05:07:44;;;;;;;4.63;2.80;;;20.10;99.90;;;;;;5027338;28;20393;-67
2022/06/27 05:10:10;;;;;;;3.55;2.35;;;20.00;99.90;;;;;;5008858;28;20648;-66
2022/06/27 05:12:35;;;;;;;3.95;2.83;;;20.10;99.90;;;;;;5040467;28;20860;-67
2022/06/27 05:15:01;;;;;;;5.33;2.53;;;20.10;99.90;;;;;;5006960;28;20689;-67
2022/06/27 05:17:27;;;;;;;4.65;2.47;;;20.20;99.90;;;;;;5006547;28;20387;-67
2022/06/27 05:19:52;;;;;;;3.33;2.40;;;20.30;99.90;;;;;;5004650;28;20465;-67
2022/06/27 05:22:18;;;;;;;6.37;3.13;;;20.40;99.90;;;;;;5004019;28;20698;-67
2022/06/27 05:24:43;;;;;;;3.75;2.70;;;20.40;99.90;;;;;;5034898;28;20448;-67
2022/06/27 05:27:09;;;;;;;4.60;2.73;;;20.40;99.90;;;;;;5020886;28;20683;-67
2022/06/27 05:29:36;;;;;;;4.22;2.55;;;20.40;99.90;;;;;;5003421;28;20714;-67
2022/06/27 05:32:02;;;;;;;5.13;2.60;;;20.40;99.90;;;;;;5003962;28;20397;-68
2022/06/27 05:34:27;;;;;;;5.43;3.10;;;20.40;99.90;;;;;;5003059;28;20667;-65
2022/06/27 05:36:53;;;;;;;3.10;2.42;;;20.30;99.90;;;;;;5035411;28;20923;-65
2022/06/27 05:39:19;;;;;;;4.35;2.40;;;20.40;99.90;;;;;;5036700;28;20794;-66
2022/06/27 05:41:45;;;;;;;4.50;2.60;;;20.50;99.90;;;;;;5001323;28;20405;-66
2022/06/27 05:44:12;;;;;;;6.60;2.70;;;20.50;99.90;;;;;;5003523;28;20395;-66
2022/06/27 05:46:57;;;;;;;3.95;2.85;;;20.60;99.90;;;;;;5024241;28;20413;-66
2022/06/27 05:49:24;;;;;;;4.13;2.58;;;20.60;99.90;;;;;;5005728;28;20584;-66
2022/06/27 05:51:51;;;;;;;3.65;2.40;;;20.60;99.90;;;;;;5008058;28;20391;-66
2022/06/27 05:54:17;;;;;;;4.80;2.90;;;20.60;99.90;;;;;;5008580;28;20394;-66
2022/06/27 05:56:43;;;;;;;5.35;3.35;;;20.70;99.90;;;;;;5008245;28;20836;-66
2022/06/27 05:59:09;;;;;;;4.80;3.10;;;20.60;99.90;;;;;;5010111;28;20387;-66
2022/06/27 06:01:37;;;;;;;3.90;2.90;;;20.60;99.90;;;;;;5010616;28;20397;-66
2022/06/27 06:04:05;;;;;;;3.53;2.90;;;20.60;99.90;;;;;;5041777;28;20386;-66
2022/06/27 06:06:30;;;;;;;5.78;3.28;;;20.60;99.90;;;;;;5025304;28;20723;-66
2022/06/27 06:08:57;;;;;;;4.40;3.30;;;20.60;99.90;;;;;;5006857;28;20445;-66
2022/06/27 06:11:23;;;;;;;4.72;3.40;;;20.60;99.90;;;;;;5039181;28;20472;-66
2022/06/27 06:13:50;;;;;;;5.60;3.20;;;20.50;99.90;;;;;;5006700;28;20399;-66
2022/06/27 06:16:19;;;;;;;6.10;3.63;;;20.50;99.90;;;;;;5006481;28;20383;-66
2022/06/27 06:18:47;;;;;;;5.07;2.88;;;20.50;99.90;;;;;;5023175;28;20402;-67
2022/06/27 06:21:13;;;;;;;5.07;3.10;;;20.60;99.90;;;;;;5006124;28;20734;-66
2022/06/27 06:23:41;;;;;;;3.80;3.10;;;20.60;99.90;;;;;;5038459;28;20375;-66
2022/06/27 06:26:07;;;;;;;5.95;3.45;;;20.60;99.90;;;;;;5002571;28;20551;-66
2022/06/27 06:28:33;;;;;;;4.28;3.60;;;20.70;99.90;;;;;;5008090;28;20393;-66
2022/06/27 06:30:59;;;;;;;3.10;2.80;;;20.70;99.90;;;;;;5035994;28;20615;-66
2022/06/27 06:33:28;;;;;;;4.80;3.50;;;20.70;99.90;;;;;;5038682;28;20978;-66
2022/06/27 06:35:54;;;;;;;5.13;3.33;;;20.70;99.90;;;;;;5002457;28;20808;-66
2022/06/27 06:38:19;;;;;;;3.20;2.90;;;20.80;99.90;;;;;;5031992;28;20396;-66
2022/06/27 06:40:45;;;;;;;3.50;3.20;;;20.80;99.90;;;;;;5028987;28;20393;-66
2022/06/27 06:43:10;;;;;;;5.10;3.67;;;20.80;99.90;;;;;;5031283;28;20400;-66
2022/06/27 06:45:36;;;;;;;3.93;3.00;;;20.90;99.90;;;;;;4998558;28;20850;-65
2022/06/27 06:48:02;;;;;;;3.87;2.60;;;20.90;99.90;;;;;;5030362;28;20408;-66
2022/06/27 06:50:27;;;;;;;4.95;3.67;;;21.00;99.90;;;;;;4999034;28;20689;-65
2022/06/27 06:52:53;;;;;;;5.22;3.75;;;21.00;99.90;;;;;;5031264;28;20865;-66
2022/06/27 06:56:03;;;;;;;3.70;2.70;;;20.90;99.90;;;;;;4997706;28;20482;-65
2022/06/27 07:05:12;;;;;;;3.60;3.10;;;21.10;99.90;;;;;;5024311;28;20510;-65
2022/06/27 07:07:43;;;;;;;4.13;3.63;;;21.20;99.90;;;;;;5004203;28;20761;-65
2022/06/27 07:10:11;;;;;;;3.70;3.30;;;21.20;99.90;;;;;;5005107;28;20406;-65
2022/06/27 07:12:38;;;;;;;5.10;3.53;;;21.20;99.90;;;;;;5005393;28;20418;-65
2022/06/27 07:15:09;;;;;;;3.30;3.00;;;21.20;99.90;;;;;;5034764;28;20485;-64
2022/06/27 07:17:49;;;;;;;5.60;3.70;;;21.30;99.90;;;;;;5000348;28;20379;-65
2022/06/27 07:20:19;;;;;;;5.10;4.10;;;21.30;99.90;;;;;;4999059;28;20603;-64
2022/06/27 07:22:47;;;;;;;6.30;4.40;;;21.20;99.90;;;;;;4998528;28;20803;-64
2022/06/27 07:25:13;;;;;;;5.47;4.70;;;21.10;99.90;;;;;;4996897;28;20443;-64
2022/06/27 07:27:41;;;;;;;8.82;5.28;;;21.10;99.90;;;;;;4996627;28;20702;-64
2022/06/27 07:30:10;;;;;;;6.57;5.30;;;21.00;99.90;;;;;;4993140;28;20396;-64
2022/06/27 07:32:40;;;;;;;6.55;5.35;;;20.80;99.90;;;;;;4996940;28;20401;-64
2022/06/27 07:35:56;;;;;;;8.05;5.40;;;20.70;99.90;;;;;;5030235;28;20507;-64
2022/06/27 07:43:00;;;;;;;8.32;6.40;;;20.70;99.90;;;;;;5026393;28;20475;-64
2022/06/27 07:45:27;;;;;;;6.18;5.60;;;20.60;99.90;;;;;;5014679;28;20397;-64
2022/06/27 07:47:54;;;;;;;8.27;6.63;;;20.60;99.90;;;;;;4994588;28;20470;-64
2022/06/27 07:50:40;;;;;;;9.18;6.45;;;20.60;99.90;;;;;;5011467;28;20553;-64
2022/06/27 07:53:27;;;;;;;6.13;5.53;;;20.60;99.90;;;;;;4994356;28;20533;-64
2022/06/27 07:55:55;;;;;;;8.18;6.15;;;20.70;99.90;;;;;;4997787;28;20790;-64
2022/06/27 07:58:35;;;;;;;9.95;5.78;;;20.60;99.90;;;;;;4998951;28;20462;-64
2022/06/27 08:01:28;;;;;;;8.05;6.65;;;20.60;99.90;;;;;;5016801;28;20395;-64
2022/06/27 08:03:56;;;;;;;9.55;6.50;;;20.50;99.90;;;;;;5000411;28;20395;-64
2022/06/27 08:06:31;;;;;;;8.18;6.35;;;20.40;99.90;;;;;;5001046;28;20387;-64
2022/06/27 08:09:08;;;;;;;10.07;7.03;;;20.40;99.90;;;;;;5002187;28;20492;-64
2022/06/27 08:11:41;;;;;;;8.88;6.10;;;20.30;99.90;;;;;;5004877;28;20395;-64
2022/06/27 08:14:11;;;;;;;7.47;6.72;;;20.40;99.90;;;;;;5006345;28;20690;-64
2022/06/27 08:16:39;;;;;;;7.20;5.80;;;20.50;99.90;;;;;;5004324;28;20394;-64
2022/06/27 08:19:58;;;;;;;8.70;7.90;;;20.50;99.90;;;;;;5004853;28;20429;-64
2022/06/27 08:22:51;;;;;;;8.02;6.68;;;20.50;99.90;;;;;;5038194;28;20391;-64
2022/06/27 08:25:17;;;;;;;12.48;8.68;;;20.60;99.90;;;;;;5024335;28;20379;-64
2022/06/27 08:28:01;;;;;;;9.25;7.40;;;20.60;99.90;;;;;;5006250;28;20410;-64
2022/06/27 08:30:28;;;;;;;9.77;7.65;;;20.50;99.90;;;;;;5006883;28;20475;-64
2022/06/27 08:32:56;;;;;;;8.30;7.13;;;20.50;99.90;;;;;;5008842;28;20425;-65
2022/06/27 08:35:24;;;;;;;8.85;7.53;;;20.50;99.90;;;;;;5004200;28;21085;-64
2022/06/27 08:37:50;;;;;;;6.85;6.13;;;20.40;99.90;;;;;;5038851;28;20393;-64
2022/06/27 08:40:17;;;;;;;7.35;5.80;;;20.30;99.90;;;;;;5040036;28;20385;-64
2022/06/27 08:42:44;;;;;;;7.95;7.05;;;20.40;99.90;;;;;;5039070;28;20475;-64
2022/06/27 08:45:13;;;;;;;10.67;7.03;;;20.40;99.90;;;;;;5006198;28;20435;-64
2022/06/27 08:47:39;;;;;;;8.68;6.45;;;20.40;99.90;;;;;;5006891;28;20435;-64
2022/06/27 08:50:07;;;;;;;10.07;7.00;;;20.40;99.90;;;;;;5039830;28;20393;-64
2022/06/27 08:52:34;;;;;;;9.98;8.07;;;20.40;99.90;;;;;;5001285;28;20495;-64
2022/06/27 08:55:01;;;;;;;10.57;8.52;;;20.30;99.90;;;;;;5037684;28;20417;-64
2022/06/27 08:57:26;;;;;;;10.80;8.38;;;20.20;99.90;;;;;;5004264;28;20385;-63
2022/06/27 08:59:53;;;;;;;12.57;8.67;;;20.00;99.90;;;;;;5005964;28;20381;-63
2022/06/27 09:02:23;;;;;;;9.82;8.07;;;20.00;99.90;;;;;;5036757;28;20440;-64
2022/06/27 09:04:58;;;;;;;11.65;7.50;;;20.00;99.90;;;;;;5006302;28;20391;-64
2022/06/27 09:07:44;;;;;;;10.43;8.90;;;20.10;99.90;;;;;;5039361;28;20471;-63
2022/06/27 09:10:28;;;;;;;10.27;7.60;;;20.20;99.90;;;;;;5039247;28;20407;-64
2022/06/27 09:13:02;;;;;;;8.37;6.33;;;20.30;99.90;;;;;;5039535;28;20518;-64
2022/06/27 09:15:41;;;;;;;12.07;7.95;;;20.40;99.90;;;;;;5037427;28;20385;-64
2022/06/27 09:18:09;;;;;;;16.70;8.75;;;20.50;99.90;;;;;;5003791;28;20965;-64
2022/06/27 09:20:52;;;;;;;9.18;7.78;;;20.50;99.90;;;;;;5035627;28;20385;-65
2022/06/27 09:26:21;;;;;;;9.37;7.43;;;20.60;99.90;;;;;;5000504;28;20830;-65
2022/06/27 09:28:57;;;;;;;6.63;6.00;;;20.60;99.90;;;;;;5001005;28;20472;-65
2022/06/27 09:31:25;;;;;;;11.10;9.47;;;20.80;99.90;;;;;;5002104;28;20454;-65
2022/06/27 09:34:12;;;;;;;11.80;8.50;;;20.90;99.90;;;;;;5003945;28;20510;-65
2022/06/27 09:36:50;;;;;;;14.70;10.68;;;20.90;99.90;;;;;;5036167;28;20994;-66
2022/06/27 09:39:28;;;;;;;11.90;10.00;;;20.90;99.90;;;;;;5004294;28;20466;-65
2022/06/27 09:42:10;;;;;;;12.23;10.73;;;20.80;99.90;;;;;;5038300;28;20389;-66
2022/06/27 09:44:41;;;;;;;15.13;11.63;;;20.70;99.90;;;;;;5036235;28;20385;-66
2022/06/27 09:47:15;;;;;;;14.55;11.52;;;20.60;99.90;;;;;;5034362;28;20474;-65
2022/06/27 09:49:43;;;;;;;15.82;11.25;;;20.40;99.90;;;;;;5034826;28;20415;-65
2022/06/27 09:52:12;;;;;;;11.43;10.00;;;20.40;99.90;;;;;;5036017;28;20408;-65
2022/06/27 09:54:40;;;;;;;13.77;11.90;;;20.50;99.90;;;;;;5038249;28;20389;-66
2022/06/27 09:57:07;;;;;;;14.60;10.40;;;20.60;99.90;;;;;;5037537;28;20675;-65
2022/06/27 09:59:34;;;;;;;11.93;10.60;;;20.60;99.90;;;;;;5004004;28;20399;-65
2022/06/27 10:02:00;;;;;;;12.40;11.10;;;20.70;99.90;;;;;;5036981;28;20408;-65
2022/06/27 10:04:26;;;;;;;9.70;8.57;;;20.70;99.90;;;;;;5038497;28;20842;-60
2022/06/27 10:06:54;;;;;;;11.30;9.88;;;20.90;99.90;;;;;;5007283;28;20664;-61
2022/06/27 10:09:24;;;;;;;11.98;9.30;;;21.10;99.90;;;;;;5007894;28;20389;-60
2022/06/27 10:12:31;;;;;;;9.93;8.93;;;21.10;99.90;;;;;;5037218;28;20381;-61
2022/06/27 10:15:10;;;;;;;10.75;8.57;;;21.20;99.90;;;;;;5036306;28;21196;-60
2022/06/27 10:17:41;;;;;;;8.95;8.10;;;21.30;99.90;;;;;;5003463;28;20416;-61
2022/06/27 10:20:12;;;;;;;13.68;10.15;;;21.30;99.90;;;;;;5040056;28;20397;-61
2022/06/27 10:22:44;;;;;;;13.32;11.23;;;21.30;99.90;;;;;;5004741;28;20400;-61
2022/06/27 10:25:27;;;;;;;12.13;9.90;;;21.20;99.90;;;;;;5036060;28;20393;-59
2022/06/27 10:28:14;;;;;;;9.77;8.80;;;21.10;99.90;;;;;;5005402;28;20393;-60
2022/06/27 10:30:47;;;;;;;11.35;10.15;;;21.30;99.90;;;;;;5008371;28;20476;-61
2022/06/27 10:33:25;;;;;;;11.35;9.48;;;21.20;99.90;;;;;;5040194;28;20408;-61
2022/06/27 10:36:16;;;;;;;12.10;11.00;;;21.10;99.90;;;;;;5007103;28;20496;-61
2022/06/27 10:38:50;;;;;;;13.23;10.17;;;21.00;99.90;;;;;;5042750;28;20458;-61
2022/06/27 10:41:33;;;;;;;10.50;9.37;;;21.00;99.90;;;;;;5012167;28;20432;-61
2022/06/27 10:43:59;;;;;;;11.73;10.23;;;21.10;99.90;;;;;;5006242;28;20476;-62
2022/06/27 10:46:24;;;;;;;12.07;10.85;;;21.20;99.90;;;;;;5005887;28;20540;-61
2022/06/27 10:48:51;;;;;;;12.53;11.33;;;21.20;99.90;;;;;;5008601;28;20887;-61
2022/06/27 10:51:24;;;;;;;11.40;9.63;;;21.20;99.90;;;;;;5004872;28;20744;-61
2022/06/27 10:53:51;;;;;;;12.50;10.73;;;21.20;99.90;;;;;;5005458;28;20483;-60
2022/06/27 10:56:26;;;;;;;11.57;10.35;;;21.30;99.90;;;;;;5039726;28;20838;-62
2022/06/27 10:58:54;;;;;;;12.43;11.13;;;21.40;99.90;;;;;;5003955;28;20395;-61
2022/06/27 11:01:51;;;;;;;13.43;11.07;;;21.40;99.90;;;;;;5004942;28;20381;-61
2022/06/27 11:04:36;;;;;;;12.48;9.93;;;21.40;99.90;;;;;;5003405;28;20802;-61
2022/06/27 11:07:09;;;;;;;14.77;12.98;;;21.60;99.90;;;;;;5033576;28;20381;-61
2022/06/27 11:09:43;;;;;;;11.25;10.15;;;21.50;99.90;;;;;;5034876;28;20629;-61
2022/06/27 11:12:10;;;;;;;14.65;12.13;;;21.40;99.90;;;;;;5001624;28;20404;-61
2022/06/27 11:14:54;;;;;;;11.90;10.70;;;21.40;99.90;;;;;;5034408;28;20653;-61
2022/06/27 11:17:28;;;;;;;13.27;11.90;;;21.40;99.90;;;;;;5036819;28;20389;-61
2022/06/27 11:20:16;;;;;;;11.77;9.80;;;21.30;99.90;;;;;;5037105;28;20582;-61
2022/06/27 11:22:44;;;;;;;11.35;10.20;;;21.20;99.90;;;;;;5005663;28;20411;-61
2022/06/27 11:25:10;;;;;;;13.73;12.32;;;21.30;99.90;;;;;;5038612;28;20878;-61
2022/06/27 11:27:52;;;;;;;13.05;11.27;;;21.20;99.90;;;;;;5004859;28;20423;-61
2022/06/27 11:33:18;;;;;;;13.38;11.90;;;21.20;99.90;;;;;;5002724;28;20966;-60
2022/06/27 11:35:45;;;;;;;14.13;12.25;;;21.30;99.90;;;;;;5036079;28;20415;-61
2022/06/27 11:38:11;;;;;;;15.70;12.07;;;21.30;99.90;;;;;;4987406;28;20482;-61
2022/06/27 11:40:37;;;;;;;12.73;11.52;;;21.30;99.90;;;;;;5021619;28;20475;-61
2022/06/27 11:43:03;;;;;;;21.10;13.38;;;21.30;99.90;;;;;;5004899;28;20399;-61
2022/06/27 11:45:39;;;;;;;14.50;12.43;;;21.30;99.90;;;;;;5006009;28;20810;-62
2022/06/27 11:48:11;;;;;;;13.98;12.68;;;21.30;99.90;;;;;;5022532;28;20777;-61
2022/06/27 11:50:37;;;;;;;13.40;10.93;;;21.30;99.90;;;;;;5005119;28;20395;-62
2022/06/27 11:53:14;;;;;;;11.30;10.30;;;21.30;99.90;;;;;;5006629;28;20414;-62
2022/06/27 11:55:40;;;;;;;13.25;11.95;;;21.30;99.90;;;;;;5008924;28;20490;-63
2022/06/27 11:58:06;;;;;;;14.52;13.07;;;21.40;99.90;;;;;;5009264;28;20470;-62
2022/06/27 12:00:34;;;;;;;15.23;11.13;;;21.30;99.90;;;;;;5006392;28;20403;-62
2022/06/27 12:03:11;;;;;;;14.53;12.97;;;21.30;99.90;;;;;;5040112;28;21036;-61
2022/06/27 12:05:38;;;;;;;13.32;12.02;;;21.20;99.90;;;;;;5006963;28;20394;-63
2022/06/27 12:08:06;;;;;;;12.30;11.07;;;21.20;99.90;;;;;;5007052;28;20391;-62
2022/06/27 12:10:45;;;;;;;10.35;9.35;;;21.20;99.90;;;;;;5006065;28;20449;-62
2022/06/27 12:13:19;;;;;;;12.45;11.20;;;21.20;99.90;;;;;;5005476;28;20802;-62
2022/06/27 12:16:22;;;;;;;13.93;10.82;;;21.20;99.90;;;;;;5037508;28;20410;-62
2022/06/27 12:18:51;;;;;;;10.95;9.85;;;21.00;99.90;;;;;;5020136;28;20371;-62
2022/06/27 12:21:32;;;;;;;11.50;10.30;;;21.10;99.90;;;;;;5000027;28;20951;-62
2022/06/27 12:23:57;;;;;;;10.95;9.80;;;21.10;99.90;;;;;;5008387;28;20413;-62
2022/06/27 12:27:08;;;;;;;10.10;9.10;;;21.10;99.90;;;;;;5009079;28;20966;-62
2022/06/27 12:29:34;;;;;;;9.90;8.82;;;21.10;99.90;;;;;;5026836;28;20508;-62
2022/06/27 12:31:59;;;;;;;9.77;8.77;;;21.30;99.90;;;;;;5007378;28;20456;-62
2022/06/27 12:34:49;;;;;;;8.97;8.13;;;21.30;99.90;;;;;;5007340;28;20415;-63
2022/06/27 12:37:18;;;;;;;9.40;8.50;;;21.20;99.90;;;;;;5004488;28;21055;-63
2022/06/27 12:39:43;;;;;;;11.70;10.50;;;21.30;99.90;;;;;;5037319;28;20396;-63
2022/06/27 12:42:09;;;;;;;11.03;9.93;;;21.30;99.90;;;;;;5002980;28;20688;-63
2022/06/27 12:44:35;;;;;;;10.80;9.70;;;21.20;99.90;;;;;;5000096;28;20676;-62
2022/06/27 12:47:00;;;;;;;11.93;10.83;;;21.10;99.90;;;;;;5033830;28;20392;-62
2022/06/27 12:49:26;;;;;;;13.50;12.10;;;21.00;99.90;;;;;;4999412;28;20396;-62
2022/06/27 12:51:51;;;;;;;12.27;11.15;;;20.90;99.90;;;;;;5032446;28;20420;-62
2022/06/27 12:54:17;;;;;;;12.50;11.20;;;20.90;99.90;;;;;;5034112;28;20405;-62
2022/06/27 12:56:46;;;;;;;14.10;12.70;;;20.90;99.90;;;;;;5002609;28;20456;-62
2022/06/27 12:59:11;;;;;;;12.77;11.57;;;21.00;99.90;;;;;;5036012;28;20532;-62
2022/06/27 13:01:37;;;;;;;13.50;12.20;;;21.00;99.90;;;;;;5004017;28;20692;-62
2022/06/27 13:04:02;;;;;;;13.30;12.10;;;21.00;99.90;;;;;;5007165;28;20475;-65
2022/06/27 13:06:28;;;;;;;12.27;10.97;;;20.70;99.90;;;;;;5039049;28;20479;-63
2022/06/27 13:08:54;;;;;;;12.63;11.35;;;21.00;99.90;;;;;;5030472;28;20470;-62
2022/06/27 13:11:19;;;;;;;11.73;10.57;;;21.30;99.90;;;;;;4998379;28;20712;-62
2022/06/27 13:13:45;;;;;;;14.48;12.98;;;21.60;99.90;;;;;;5030544;28;20411;-62